Latest Weather Observations for Sydney - Observatory Hill

IDN60801

Issued at 1:33 pm EST Sunday 25 September 2016 (issued every 30 minutes, with the page automatically refreshed every 10 minutes)

About weather observations | Map of weather stations | Latest weather observations for NSW | Other Formats
Station Details ID: 066062 Name: SYDNEY (OBSERVATORY HILL) Lat: -33.86 Lon: 151.21 Height: 39.0 m
Data from the previous 72 hours. | See also: Recent months at Sydney - Observatory Hill

* Apparent temperature (App Temp) for Sydney - Observatory Hill is calculated using temperature observations collected at Sydney - Observatory Hill and wind observations collected at Fort Denison, as wind observations are not currently provided for Sydney - Observatory Hill.

Date/Time
EST
Temp
°C
App
Temp
°C
Dew
Point
°C
Rel
Hum
%
Delta-T
°C
Wind Press
QNH
hPa
Press
MSL
hPa
Rain since
9am
mm
Dir  Spd
km/h
Gust
km/h
Spd
kts
Gust
kts
25/01:30pm 19.6 17.3 10.3 55 5.0 WSW 13 - 7 - 1005.2 1005.1 0.8
25/01:00pm 22.1 19.8 10.3 47 6.5 WNW 13 - 7 - 1004.8 1004.7 0.0
25/12:30pm 20.8 17.3 8.8 46 6.3 WSW 17 - 9 - 1005.2 1005.1 0.0
25/12:00pm 19.7 14.9 9.0 50 5.7 WSW 24 - 13 - 1005.1 1005.0 0.0
25/11:30am 19.7 16.6 10.4 55 5.0 WNW 17 - 9 - 1005.2 1005.1 0.0
25/11:00am 17.8 15.1 10.4 62 4.0 W 15 - 8 - 1005.5 1005.4 0.0
25/10:30am 17.0 15.1 10.6 66 3.4 WNW 11 - 6 - 1005.8 1005.7 0.0
25/10:00am 16.0 14.2 11.0 72 2.7 WNW 11 - 6 - 1006.2 1006.1 0.0
25/09:30am 15.5 12.9 10.7 73 2.5 WNW 15 - 8 - 1006.5 1006.5 0.0
25/09:00am 15.5 13.0 10.9 74 2.5 W 15 - 8 - 1006.7 1006.7 3.4
25/08:30am 15.1 13.5 11.5 79 1.9 W 11 - 6 - 1006.8 1006.8 3.4
25/08:00am 14.4 12.8 11.4 82 1.6 W 11 - 6 - 1006.7 1006.7 3.4
25/07:30am 13.8 11.7 11.0 83 1.5 W 13 - 7 - 1006.8 1006.8 3.4
25/07:00am 13.6 11.0 10.6 82 1.6 WNW 15 - 8 - 1006.7 1006.7 3.0
25/06:30am 13.7 11.4 10.5 81 1.7 WNW 13 - 7 - 1006.6 1006.6 2.4
25/06:00am 14.0 12.1 10.6 80 1.8 W 11 - 6 - 1006.5 1006.5 2.0
25/05:30am 14.4 12.9 10.4 77 2.1 WNW 9 - 5 - 1006.3 1006.2 1.6
25/05:00am 14.6 12.8 10.8 78 2.0 W 11 - 6 - 1006.4 1006.4 1.2
25/04:30am 14.8 12.7 11.0 78 2.0 W 13 - 7 - 1006.4 1006.4 1.0
25/04:00am 15.0 12.4 10.6 75 2.3 WNW 15 - 8 - 1006.5 1006.5 0.8
25/03:30am 15.7 14.5 12.8 83 1.6 W 11 - 6 - 1006.4 1006.4 0.6
25/03:00am 16.1 14.3 13.2 83 1.6 WNW 15 - 8 - 1006.3 1006.2 0.2
25/02:30am 16.3 14.3 12.8 80 1.9 WNW 15 - 8 - 1005.9 1005.8 0.0
25/02:00am 16.5 14.6 13.0 80 2.0 W 15 - 8 - 1005.7 1005.6 0.0
25/01:30am 16.5 15.4 13.0 80 2.0 W 11 - 6 - 1006.1 1006.0 0.0
25/01:00am 16.7 15.6 13.0 79 2.1 WNW 11 - 6 - 1006.7 1006.7 0.0
25/12:30am 16.8 16.5 13.3 80 2.0 W 7 - 4 - 1007.1 1007.1 0.0
25/12:00am 16.9 16.3 13.4 80 2.0 WNW 9 - 5 - 1007.4 1007.4 0.0
 
Date/Time
EST
Temp
°C
App
Temp
°C
Dew
Point
°C
Rel
Hum
%
Delta-T
°C
Wind Press
QNH
hPa
Press
MSL
hPa
Rain since
9am
mm
Dir  Spd
km/h
Gust
km/h
Spd
kts
Gust
kts
24/11:30pm 17.1 16.8 13.4 79 2.1 W 7 - 4 - 1007.3 1007.3 0.0
24/11:00pm 17.2 16.9 13.3 78 2.2 NNW 7 - 4 - 1007.6 1007.6 0.0
24/10:30pm 17.5 17.4 13.4 77 2.3 NNW 6 - 3 - 1007.8 1007.8 0.0
24/10:00pm 18.1 18.5 13.6 75 2.6 N 4 - 2 - 1007.9 1007.9 0.0
24/09:30pm 18.4 18.9 14.1 76 2.5 N 4 - 2 - 1008.0 1008.0 0.0
24/09:00pm 18.5 18.4 13.8 74 2.7 N 7 - 4 - 1008.4 1008.4 0.0
24/08:30pm 18.9 18.8 14.0 73 2.8 NE 7 - 4 - 1008.6 1008.6 0.0
24/08:00pm 18.9 19.1 14.2 74 2.7 ENE 6 - 3 - 1008.7 1008.7 0.0
24/07:30pm 18.7 18.2 13.8 73 2.8 E 9 - 5 - 1008.1 1008.1 0.0
24/07:00pm 18.7 17.8 13.6 72 2.9 E 11 - 6 - 1008.0 1008.0 0.0
24/06:30pm 18.8 17.4 13.4 71 3.1 ENE 13 - 7 - 1008.0 1008.0 0.0
24/06:00pm 19.0 17.3 13.6 71 3.1 ENE 15 - 8 - 1008.0 1008.0 0.0
24/05:30pm 19.2 17.1 13.6 70 3.2 ENE 17 - 9 - 1007.7 1007.7 0.0
24/05:00pm 19.1 17.4 13.7 71 3.1 ENE 15 - 8 - 1007.8 1007.8 0.0
24/04:30pm 19.4 17.7 13.6 69 3.3 ENE 15 - 8 - 1007.6 1007.6 0.0
24/04:00pm 20.0 18.3 13.7 67 3.6 E 15 - 8 - 1007.7 1007.7 0.0
24/03:30pm 20.2 18.0 13.2 64 4.0 ESE 17 - 9 - 1007.8 1007.8 0.0
24/03:00pm 20.6 18.4 13.3 63 4.2 ESE 17 - 9 - 1007.9 1007.9 0.0
24/02:30pm 19.9 17.9 12.7 63 4.1 ESE 15 - 8 - 1008.0 1008.0 0.0
24/02:00pm 20.0 17.6 12.5 62 4.2 E 17 - 9 - 1008.4 1008.4 0.0
24/01:30pm 20.9 18.4 12.3 58 4.8 E 17 - 9 - 1008.9 1008.9 0.0
24/01:00pm 20.7 18.1 11.9 57 4.9 E 17 - 9 - 1009.4 1009.4 0.0
24/12:30pm 20.7 18.1 11.9 57 4.9 E 17 - 9 - 1009.8 1009.8 0.0
24/12:00pm 21.0 18.1 12.2 57 5.0 E 19 - 10 - 1010.2 1010.2 0.0
24/11:30am 20.3 17.8 12.3 60 4.5 E 17 - 9 - 1010.7 1010.7 0.0
24/11:00am 20.5 18.2 10.3 52 5.5 E 13 - 7 - 1011.0 1011.0 0.0
24/10:30am 21.3 20.8 10.8 51 5.8 NW 4 - 2 - 1011.5 1011.5 0.0
24/10:00am 20.7 19.1 10.2 51 5.7 WNW 9 - 5 - 1011.9 1011.9 0.0
24/09:30am 19.6 17.2 10.0 54 5.1 WNW 13 - 7 - 1012.3 1012.3 0.0
24/09:00am 18.4 15.8 9.2 55 4.8 WNW 13 - 7 - 1012.6 1012.6 0.0
24/08:30am 17.5 14.1 9.2 58 4.3 WNW 17 - 9 - 1012.8 1012.8 0.0
24/08:00am 16.4 13.0 9.3 63 3.7 W 17 - 9 - 1013.0 1013.0 0.0
24/07:30am 15.2 11.6 8.4 64 3.4 W 17 - 9 - 1012.9 1012.9 0.0
24/07:00am 14.0 10.4 8.4 69 2.8 W 17 - 9 - 1012.7 1012.7 0.0
24/06:30am 12.9 9.0 8.6 75 2.1 W 19 - 10 - 1012.4 1012.4 0.0
24/06:00am 12.6 8.4 8.3 75 2.1 W 20 - 11 - 1012.0 1012.0 0.0
24/05:30am 12.9 9.3 8.4 74 2.2 W 17 - 9 - 1011.7 1011.7 0.0
24/05:00am 13.3 9.4 8.8 74 2.3 W 19 - 10 - 1011.6 1011.6 0.0
24/04:30am 13.1 8.7 8.8 75 2.2 W 22 - 12 - 1011.6 1011.6 0.0
24/04:00am 13.4 9.0 9.1 75 2.2 W 22 - 12 - 1011.6 1011.6 0.0
24/03:30am 13.6 9.3 9.3 75 2.2 W 22 - 12 - 1011.4 1011.4 0.0
24/03:00am 13.9 10.5 9.3 74 2.4 W 17 - 9 - 1011.5 1011.5 0.0
24/02:30am 14.0 10.0 9.2 73 2.4 W 20 - 11 - 1011.5 1011.5 0.0
24/02:00am 14.2 10.5 9.4 73 2.5 W 19 - 10 - 1011.5 1011.5 0.0
24/01:30am 14.5 10.9 9.7 73 2.5 W 19 - 10 - 1011.7 1011.7 0.0
24/01:00am 15.5 12.7 10.1 70 2.8 W 15 - 8 - 1011.7 1011.7 0.0
24/12:30am 15.8 13.4 10.1 69 3.0 SW 13 - 7 - 1011.9 1011.9 0.0
24/12:00am 16.2 13.1 10.3 68 3.1 SW 17 - 9 - 1011.9 1011.9 0.0
 
Date/Time
EST
Temp
°C
App
Temp
°C
Dew
Point
°C
Rel
Hum
%
Delta-T
°C
Wind Press
QNH
hPa
Press
MSL
hPa
Rain since
9am
mm
Dir  Spd
km/h
Gust
km/h
Spd
kts
Gust
kts
23/11:30pm 16.4 13.0 10.5 68 3.1 SW 19 - 10 - 1012.0 1012.0 0.0
23/11:00pm 16.5 13.1 10.4 67 3.2 SW 19 - 10 - 1012.1 1012.1 0.0
23/10:30pm 16.6 13.6 10.5 67 3.2 SSW 17 - 9 - 1012.0 1012.0 0.0
23/10:00pm 16.5 13.4 10.4 67 3.2 SSW 17 - 9 - 1012.2 1012.2 0.0
23/09:30pm 16.7 13.5 10.1 65 3.5 SSW 17 - 9 - 1012.3 1012.3 0.0
23/09:00pm 16.9 13.7 10.1 64 3.6 SSW 17 - 9 - 1012.3 1012.3 0.0
23/08:30pm 16.8 14.0 10.0 64 3.6 SSW 15 - 8 - 1012.3 1012.3 0.0
23/08:00pm 17.1 13.6 10.2 64 3.7 SSW 19 - 10 - 1012.3 1012.3 0.0
23/07:30pm 17.1 13.4 10.2 64 3.7 SSW 20 - 11 - 1012.3 1012.3 0.0
23/07:00pm 17.3 13.7 10.7 65 3.5 SSW 20 - 11 - 1012.1 1012.1 0.0
23/06:30pm 17.5 13.9 10.4 63 3.8 SSW 20 - 11 - 1011.8 1011.8 0.0
23/06:00pm 17.8 14.8 10.7 63 3.8 S 17 - 9 - 1011.5 1011.5 0.0
23/05:30pm 18.2 13.7 10.1 59 4.3 SSW 24 - 13 - 1011.2 1011.2 0.0
23/05:00pm 18.5 13.5 9.6 56 4.7 S 26 - 14 - 1010.8 1010.8 0.0
23/04:30pm 18.8 14.2 9.8 56 4.8 S 24 - 13 - 1010.7 1010.7 0.0
23/04:00pm 19.8 15.5 9.4 51 5.5 S 22 - 12 - 1010.7 1010.7 0.0
23/03:30pm 21.2 17.1 10.1 49 6.0 SSW 22 - 12 - 1010.6 1010.6 0.0
23/03:00pm 21.5 17.0 10.0 48 6.2 SSW 24 - 13 - 1010.7 1010.7 0.0
23/02:30pm 21.8 15.7 9.7 46 6.5 SSW 32 - 17 - 1010.7 1010.7 0.0
23/02:00pm 21.3 16.0 9.9 48 6.2 SSW 28 - 15 - 1010.8 1010.8 0.0
23/01:30pm 21.3 16.3 9.5 47 6.3 S 26 - 14 - 1010.6 1010.6 0.0
23/01:00pm 21.6 15.5 9.8 47 6.4 S 32 - 17 - 1010.7 1010.7 0.0
23/12:30pm 21.1 15.6 10.6 51 5.7 SSW 30 - 16 - 1010.8 1010.8 0.0
23/12:00pm 21.1 14.9 9.4 47 6.3 SSW 32 - 17 - 1011.2 1011.2 0.0
23/11:30am 20.9 14.5 9.2 47 6.2 S 33 - 18 - 1011.3 1011.3 0.0
23/11:00am 20.4 14.9 9.0 48 6.0 SSW 28 - 15 - 1011.3 1011.3 0.0
23/10:30am 20.2 14.1 9.7 51 5.6 SSW 32 - 17 - 1011.4 1011.4 0.0
23/10:00am 19.1 12.8 9.0 52 5.3 SSW 32 - 17 - 1011.5 1011.5 0.0
23/09:30am 17.7 13.6 8.0 53 4.9 SW 19 - 10 - 1011.8 1011.8 0.0
23/09:00am 17.3 13.3 8.2 55 4.7 SW 19 - 10 - 1011.7 1011.7 0.6
23/08:30am 16.7 11.5 7.4 54 4.7 WSW 24 - 13 - 1011.6 1011.6 0.6
23/08:00am 16.1 10.8 6.8 54 4.6 WSW 24 - 13 - 1011.4 1011.4 0.6
23/07:30am 15.9 10.6 6.9 55 4.4 W 24 - 13 - 1011.3 1011.3 0.6
23/07:00am 15.5 10.2 6.8 56 4.3 WSW 24 - 13 - 1011.2 1011.2 0.6
23/06:30am 15.3 10.3 6.6 56 4.2 W 22 - 12 - 1011.0 1011.0 0.6
23/06:00am 15.3 10.7 6.6 56 4.2 W 20 - 11 - 1010.5 1010.5 0.6
23/05:30am 15.3 10.0 6.6 56 4.2 W 24 - 13 - 1009.9 1009.9 0.6
23/05:00am 15.4 10.1 6.7 56 4.3 W 24 - 13 - 1009.6 1009.6 0.6
23/04:30am 15.4 10.8 6.4 55 4.4 W 20 - 11 - 1009.1 1009.1 0.6
23/04:00am 15.5 10.5 6.5 55 4.4 W 22 - 12 - 1008.9 1008.9 0.6
23/03:30am 15.5 10.5 6.5 55 4.4 WSW 22 - 12 - 1008.8 1008.8 0.6
23/03:00am 15.7 10.3 6.4 54 4.5 W 24 - 13 - 1008.9 1008.9 0.6
23/02:30am 15.8 10.1 6.5 54 4.5 W 26 - 14 - 1008.8 1008.8 0.6
23/02:00am 16.0 10.6 6.2 52 4.8 W 24 - 13 - 1008.7 1008.7 0.6
23/01:30am 16.1 10.7 6.3 52 4.8 W 24 - 13 - 1008.9 1008.9 0.6
23/01:00am 16.2 10.8 6.3 52 4.8 WSW 24 - 13 - 1008.9 1008.9 0.6
23/12:30am 16.4 10.7 6.8 53 4.7 W 26 - 14 - 1008.9 1008.9 0.6
23/12:00am 16.5 10.5 6.9 53 4.8 WSW 28 - 15 - 1009.0 1009.0 0.6
 
Date/Time
EST
Temp
°C
App
Temp
°C
Dew
Point
°C
Rel
Hum
%
Delta-T
°C
Wind Press
QNH
hPa
Press
MSL
hPa
Rain since
9am
mm
Dir  Spd
km/h
Gust
km/h
Spd
kts
Gust
kts
22/11:30pm 16.4 11.2 7.3 55 4.5 WSW 24 - 13 - 1009.0 1009.0 0.6
22/11:00pm 16.5 11.4 7.7 56 4.4 WSW 24 - 13 - 1009.1 1009.1 0.6
22/10:30pm 16.4 11.4 7.9 57 4.3 W 24 - 13 - 1008.9 1008.9 0.6
22/10:00pm 16.3 12.0 8.0 58 4.2 W 20 - 11 - 1008.9 1008.9 0.6
22/09:30pm 16.2 12.0 8.2 59 4.1 W 20 - 11 - 1008.8 1008.8 0.6
22/09:00pm 16.5 12.2 8.0 57 4.3 W 20 - 11 - 1008.6 1008.6 0.6
22/08:30pm 16.7 12.5 8.1 57 4.4 WSW 20 - 11 - 1008.6 1008.6 0.6
22/08:00pm 16.9 11.9 8.1 56 4.5 W 24 - 13 - 1008.5 1008.5 0.6
22/07:30pm 17.1 11.6 7.7 54 4.7 WSW 26 - 14 - 1008.4 1008.4 0.6
22/07:00pm 17.2 11.4 7.8 54 4.8 WSW 28 - 15 - 1008.0 1008.0 0.6
22/06:30pm 17.6 11.3 7.6 52 5.1 WSW 30 - 16 - 1007.7 1007.7 0.6
22/06:00pm 18.1 12.5 7.2 49 5.5 WSW 26 - 14 - 1007.1 1007.1 0.6
22/05:30pm 18.0 12.8 7.4 50 5.4 W 24 - 13 - 1006.9 1006.9 0.6
22/05:00pm 18.0 13.8 7.4 50 5.4 W 19 - 10 - 1006.6 1006.6 0.6
22/04:30pm 17.7 13.0 7.7 52 5.1 W 22 - 12 - 1006.4 1006.4 0.6
22/04:00pm 17.2 13.2 8.9 58 4.3 W 20 - 11 - 1006.3 1006.2 0.6
22/03:30pm 16.7 12.4 9.4 62 3.8 W 22 - 12 - 1006.0 1005.9 0.6
22/03:00pm 17.0 12.5 9.9 63 3.8 W 24 - 13 - 1006.0 1005.9 0.6
22/02:30pm 16.6 12.0 9.5 63 3.7 WSW 24 - 13 - 1006.3 1006.2 0.6
22/02:00pm 16.8 14.1 10.2 65 3.5 WSW 15 - 8 - 1006.5 1006.5 0.6

Other Formats:

Comma delimited format used in spreadsheet applications
http://www.bom.gov.au/fwo/IDN60801/IDN60801.94768.axf

JavaScript Object Notation format (JSON) in row-major order
http://www.bom.gov.au/fwo/IDN60801/IDN60801.94768.json